createdAt,value
2022-09-15T00:01:20.208Z,5.10
2022-09-15T00:03:48.850Z,5.68
2022-09-15T00:06:17.701Z,4.93
2022-09-15T00:08:45.623Z,5.65
2022-09-15T00:11:22.594Z,5.72
2022-09-15T00:13:51.509Z,4.57
2022-09-15T00:16:23.237Z,4.70
2022-09-15T00:18:51.832Z,4.50
2022-09-15T00:21:22.994Z,5.45
2022-09-15T00:23:50.937Z,4.50
2022-09-15T00:26:23.029Z,5.75
2022-09-15T00:28:52.138Z,4.62
2022-09-15T00:31:23.194Z,4.20
2022-09-15T00:33:53.857Z,5.03
2022-09-15T00:36:22.811Z,5.05
2022-09-15T00:38:51.617Z,5.07
2022-09-15T00:41:22.146Z,4.80
2022-09-15T00:43:55.474Z,4.60
2022-09-15T00:46:28.619Z,4.05
2022-09-15T00:49:02.175Z,5.12
2022-09-15T00:51:36.176Z,4.32
2022-09-15T00:54:08.486Z,4.80
2022-09-15T00:56:39.169Z,5.28
2022-09-15T00:59:11.502Z,5.43
2022-09-15T01:01:42.051Z,5.93
2022-09-15T01:04:10.369Z,6.55
2022-09-15T01:06:43.890Z,6.20
2022-09-15T01:09:41.929Z,5.78
2022-09-15T01:12:09.689Z,5.25
2022-09-15T01:14:37.897Z,7.07
2022-09-15T01:17:18.529Z,6.45
2022-09-15T01:19:56.527Z,6.45
2022-09-15T01:22:36.692Z,6.72
2022-09-15T01:25:45.598Z,6.43
2022-09-15T01:28:49.555Z,6.28
2022-09-15T01:32:11.511Z,5.80
2022-09-15T01:34:46.851Z,6.12
2022-09-15T01:37:21.446Z,6.45
2022-09-15T01:39:53.249Z,7.07
2022-09-15T01:42:24.976Z,5.60
2022-09-15T01:44:58.601Z,6.22
2022-09-15T01:47:29.936Z,6.55
2022-09-15T01:50:10.327Z,6.60
2022-09-15T01:52:43.347Z,7.35
2022-09-15T01:55:22.721Z,5.15
2022-09-15T01:57:50.844Z,5.32
2022-09-15T02:00:18.771Z,6.05
2022-09-15T02:03:02.068Z,6.20
2022-09-15T02:05:36.457Z,6.12
2022-09-15T02:08:25.450Z,6.12
2022-09-15T02:11:20.171Z,6.47
2022-09-15T02:14:10.884Z,7.03
2022-09-15T02:16:42.093Z,5.78
2022-09-15T02:19:19.990Z,7.07
2022-09-15T02:22:12.715Z,6.55
2022-09-15T02:24:46.245Z,5.65
2022-09-15T02:27:23.394Z,7.20
2022-09-15T02:29:56.077Z,6.93
2022-09-15T02:32:26.430Z,6.43
2022-09-15T02:34:56.730Z,6.53
2022-09-15T02:37:25.345Z,6.93
2022-09-15T02:39:59.384Z,6.45
2022-09-15T02:42:30.345Z,6.57
2022-09-15T02:44:59.753Z,7.05
2022-09-15T02:47:28.844Z,6.85
2022-09-15T02:49:57.434Z,6.90
2022-09-15T02:52:28.299Z,6.47
2022-09-15T02:54:56.344Z,7.20
2022-09-15T02:57:24.337Z,7.85
2022-09-15T03:00:10.308Z,6.55
2022-09-15T03:02:38.954Z,6.15
2022-09-15T03:05:07.899Z,6.37
2022-09-15T03:07:37.844Z,6.78
2022-09-15T03:10:07.553Z,6.60
2022-09-15T03:12:47.060Z,6.10
2022-09-15T03:15:17.879Z,5.80
2022-09-15T03:17:47.670Z,6.10
2022-09-15T03:20:20.388Z,5.40
2022-09-15T03:22:49.863Z,5.82
2022-09-15T03:25:18.581Z,5.65
2022-09-15T03:27:46.856Z,5.40
2022-09-15T03:30:17.082Z,6.43
2022-09-15T03:32:45.145Z,5.32
2022-09-15T03:35:12.904Z,5.32
2022-09-15T03:37:40.738Z,5.57
2022-09-15T03:40:10.974Z,5.90
2022-09-15T03:42:38.826Z,5.28
2022-09-15T03:45:07.031Z,6.12
2022-09-15T03:47:35.085Z,5.55
2022-09-15T03:50:02.858Z,5.55
2022-09-15T03:52:32.232Z,5.75
2022-09-15T03:55:00.362Z,5.62
2022-09-15T03:57:28.139Z,6.12
2022-09-15T03:59:55.909Z,4.65
2022-09-15T04:02:24.153Z,4.78
2022-09-15T04:04:52.389Z,5.15
2022-09-15T04:07:20.105Z,5.15
2022-09-15T04:09:47.791Z,4.65
2022-09-15T04:12:16.068Z,4.80
2022-09-15T04:14:43.939Z,5.05
2022-09-15T04:17:11.934Z,5.32
2022-09-15T04:19:40.981Z,4.62
2022-09-15T04:22:08.763Z,4.87
2022-09-15T04:24:36.517Z,4.55
2022-09-15T04:27:04.896Z,4.70
2022-09-15T04:29:32.692Z,5.47
2022-09-15T04:32:00.657Z,4.80
2022-09-15T04:34:28.824Z,5.10
2022-09-15T04:36:56.590Z,4.62
2022-09-15T04:39:24.608Z,4.85
2022-09-15T04:41:52.741Z,5.32
2022-09-15T04:44:20.675Z,5.10
2022-09-15T04:46:49.128Z,4.35
2022-09-15T04:49:17.336Z,4.87
2022-09-15T04:51:45.125Z,5.22
2022-09-15T04:54:12.846Z,4.90
2022-09-15T04:56:41.232Z,4.82
2022-09-15T04:59:14.886Z,4.68
2022-09-15T05:01:44.015Z,4.00
2022-09-15T05:04:12.287Z,4.55
2022-09-15T05:06:40.236Z,5.62
2022-09-15T05:09:10.419Z,4.97
2022-09-15T05:11:38.886Z,5.40
2022-09-15T05:14:08.305Z,5.65
2022-09-15T05:16:36.879Z,5.78
2022-09-15T05:19:05.107Z,4.90
2022-09-15T05:21:33.191Z,5.53
2022-09-15T05:24:01.386Z,5.30
2022-09-15T05:26:30.097Z,3.67
2022-09-15T05:28:58.256Z,4.78
2022-09-15T05:31:28.944Z,3.50
2022-09-15T05:33:57.507Z,4.80
2022-09-15T05:36:25.608Z,5.22
2022-09-15T05:38:54.519Z,4.90
2022-09-15T05:41:22.931Z,5.07
2022-09-15T05:43:51.322Z,5.05
2022-09-15T05:46:20.729Z,3.97
2022-09-15T05:48:48.628Z,4.65
2022-09-15T05:51:16.359Z,5.87
2022-09-15T05:53:44.524Z,5.45
2022-09-15T05:56:14.243Z,4.93
2022-09-15T05:58:43.735Z,4.12
2022-09-15T06:01:15.391Z,5.10
2022-09-15T06:03:44.467Z,5.43
2022-09-15T06:06:12.580Z,5.62
2022-09-15T06:08:44.460Z,5.15
2022-09-15T06:11:15.895Z,4.35
2022-09-15T06:13:44.438Z,4.65
2022-09-15T06:16:15.475Z,5.70
2022-09-15T06:18:43.658Z,5.12
2022-09-15T06:21:14.542Z,4.65
2022-09-15T06:23:45.031Z,4.70
2022-09-15T06:26:20.489Z,5.82
2022-09-15T06:29:00.740Z,5.65
2022-09-15T06:31:31.937Z,5.70
2022-09-15T06:34:00.854Z,4.93
2022-09-15T06:36:30.709Z,5.87
2022-09-15T06:38:59.226Z,5.37
2022-09-15T06:41:33.017Z,6.00
2022-09-15T06:44:17.455Z,5.15
2022-09-15T06:46:45.267Z,4.22
2022-09-15T06:49:15.398Z,4.25
2022-09-15T06:51:43.621Z,4.65
2022-09-15T06:54:12.210Z,4.70
2022-09-15T06:56:39.952Z,4.60
2022-09-15T06:59:10.339Z,5.78
2022-09-15T07:01:38.224Z,3.60
2022-09-15T07:04:09.202Z,4.10
2022-09-15T07:06:39.392Z,5.90
2022-09-15T07:09:08.044Z,5.50
2022-09-15T07:11:36.013Z,5.40
2022-09-15T07:14:04.809Z,3.35
2022-09-15T07:16:33.006Z,4.10
2022-09-15T07:19:03.540Z,4.32
2022-09-15T07:21:31.745Z,3.87
2022-09-15T07:24:02.690Z,3.67
2022-09-15T07:26:34.175Z,3.60
2022-09-15T07:29:05.882Z,3.42
2022-09-15T07:31:35.676Z,2.27
2022-09-15T07:34:04.020Z,2.70
2022-09-15T07:36:32.292Z,2.67
2022-09-15T07:39:00.509Z,2.17
2022-09-15T07:41:30.438Z,2.65
2022-09-15T07:44:00.451Z,2.55
2022-09-15T07:46:32.171Z,3.47
2022-09-15T07:49:03.308Z,3.30
2022-09-15T07:51:31.762Z,3.20
2022-09-15T07:53:59.594Z,2.97
2022-09-15T07:56:27.424Z,2.75
2022-09-15T07:58:55.529Z,3.12
2022-09-15T08:01:23.529Z,2.05
2022-09-15T08:03:52.984Z,2.45
2022-09-15T08:06:23.820Z,2.30
2022-09-15T08:09:00.064Z,2.50
2022-09-15T08:11:29.337Z,2.10
2022-09-15T08:14:00.728Z,2.53
2022-09-15T08:16:28.743Z,1.83
2022-09-15T08:18:56.492Z,2.45
2022-09-15T08:21:24.674Z,2.20
2022-09-15T08:23:58.273Z,1.95
2022-09-15T08:26:28.384Z,2.30
2022-09-15T08:28:58.838Z,2.05
2022-09-15T08:31:27.079Z,2.53
2022-09-15T08:33:56.225Z,2.35
2022-09-15T08:36:28.212Z,2.90
2022-09-15T08:38:56.920Z,3.28
2022-09-15T08:41:38.321Z,3.00
2022-09-15T08:44:24.946Z,3.53
2022-09-15T08:47:14.372Z,3.30
2022-09-15T08:50:05.979Z,2.85
2022-09-15T08:52:49.685Z,3.80
2022-09-15T08:55:46.125Z,3.08
2022-09-15T08:58:18.021Z,3.17
2022-09-15T09:00:48.920Z,3.42
2022-09-15T09:03:34.235Z,2.67
2022-09-15T09:06:17.254Z,2.15
2022-09-15T09:08:50.973Z,2.58
2022-09-15T09:11:34.419Z,3.55
2022-09-15T09:14:35.731Z,3.22
2022-09-15T09:17:24.759Z,2.65
2022-09-15T09:20:20.041Z,3.35
2022-09-15T09:22:51.629Z,3.10
2022-09-15T09:25:27.515Z,4.10
2022-09-15T09:27:58.891Z,4.05
2022-09-15T09:30:29.990Z,3.87
2022-09-15T09:33:20.448Z,4.40
2022-09-15T09:35:54.449Z,3.65
2022-09-15T09:38:29.000Z,3.42
2022-09-15T09:41:02.354Z,4.82
2022-09-15T09:43:32.068Z,5.12
2022-09-15T09:46:00.139Z,4.30
2022-09-15T09:48:29.409Z,3.80
2022-09-15T09:53:42.725Z,4.57
2022-09-15T09:56:18.364Z,4.30
2022-09-15T09:58:46.383Z,4.05
2022-09-15T10:01:17.209Z,3.37
2022-09-15T10:03:46.304Z,3.92
2022-09-15T10:06:19.342Z,4.40
2022-09-15T10:09:04.465Z,4.55
2022-09-15T10:11:48.115Z,4.15
2022-09-15T10:14:22.724Z,3.40
2022-09-15T10:17:02.120Z,3.90
2022-09-15T10:19:43.714Z,4.10
2022-09-15T10:22:31.006Z,3.87
2022-09-15T10:25:01.698Z,4.40
2022-09-15T10:27:32.572Z,4.28
2022-09-15T10:30:18.275Z,5.15
2022-09-15T10:32:46.167Z,4.95
2022-09-15T10:35:19.956Z,4.55
2022-09-15T10:38:05.319Z,4.12
2022-09-15T10:41:01.168Z,4.47
2022-09-15T10:43:31.758Z,4.47
2022-09-15T10:46:19.702Z,3.58
2022-09-15T10:49:22.518Z,4.00
2022-09-15T10:52:25.480Z,3.60
2022-09-15T10:55:51.553Z,3.87
2022-09-15T10:58:49.622Z,3.80
2022-09-15T11:01:29.795Z,3.95
2022-09-15T11:04:11.742Z,4.68
2022-09-15T11:06:39.412Z,4.45
2022-09-15T11:09:29.526Z,4.53
2022-09-15T11:12:35.625Z,3.85
2022-09-15T11:15:31.591Z,3.85
2022-09-15T11:18:25.555Z,4.37
2022-09-15T11:21:16.714Z,4.28
2022-09-15T11:23:54.056Z,3.30
2022-09-15T11:26:34.819Z,3.28
2022-09-15T11:29:23.763Z,4.07
2022-09-15T11:32:15.946Z,4.12
2022-09-15T11:34:51.366Z,4.00
2022-09-15T11:37:24.508Z,4.37
2022-09-15T11:40:05.981Z,5.72
2022-09-15T11:42:40.654Z,2.60
2022-09-15T11:45:18.473Z,3.25
2022-09-15T11:47:56.707Z,4.85
2022-09-15T11:50:41.859Z,4.03
2022-09-15T11:53:20.938Z,4.20
2022-09-15T11:56:00.629Z,4.35
2022-09-15T11:58:43.342Z,3.95
2022-09-15T12:01:10.973Z,4.00
2022-09-15T12:03:54.287Z,3.35
2022-09-15T12:06:35.926Z,4.20
2022-09-15T12:09:06.755Z,3.45
2022-09-15T12:11:44.217Z,4.00
2022-09-15T12:14:36.040Z,3.47
2022-09-15T12:17:06.880Z,3.83
2022-09-15T12:19:43.772Z,3.22
2022-09-15T12:22:20.678Z,4.25
2022-09-15T12:25:01.690Z,3.53
2022-09-15T12:27:31.581Z,3.87
2022-09-15T12:30:00.901Z,3.42
2022-09-15T12:32:35.277Z,3.50
2022-09-15T12:35:33.824Z,4.05
2022-09-15T12:38:01.889Z,6.18
2022-09-15T12:40:40.855Z,3.85
2022-09-15T12:43:11.843Z,4.05
2022-09-15T12:45:46.296Z,3.80
2022-09-15T12:48:25.346Z,3.80
2022-09-15T12:50:56.386Z,4.43
2022-09-15T12:53:28.398Z,3.90
2022-09-15T12:56:03.778Z,4.10
2022-09-15T12:58:38.353Z,4.43
2022-09-15T13:01:44.894Z,3.92
2022-09-15T13:04:27.002Z,4.90
2022-09-15T13:07:16.748Z,5.47
2022-09-15T13:09:45.838Z,4.47
2022-09-15T13:12:18.110Z,4.18
2022-09-15T13:14:50.340Z,4.12
2022-09-15T13:17:22.961Z,4.60
2022-09-15T13:19:56.875Z,3.78
2022-09-15T13:22:47.816Z,3.97
2022-09-15T13:25:19.745Z,4.20
2022-09-15T13:27:55.116Z,3.90
2022-09-15T13:31:00.111Z,4.05
2022-09-15T13:43:24.390Z,3.75
2022-09-15T13:46:12.908Z,4.07
2022-09-15T13:49:07.484Z,4.50
2022-09-15T13:51:38.743Z,4.10
2022-09-15T13:54:15.695Z,4.00
2022-09-15T13:56:45.717Z,3.87
2022-09-15T13:59:30.870Z,3.50
2022-09-15T14:02:00.179Z,3.95
2022-09-15T14:04:31.474Z,3.25
2022-09-15T14:07:02.062Z,2.58
2022-09-15T14:09:47.780Z,3.62
2022-09-15T14:12:18.410Z,3.30
2022-09-15T14:14:54.973Z,2.95
2022-09-15T14:17:27.314Z,2.72
2022-09-15T14:19:58.080Z,3.47
2022-09-15T14:22:33.024Z,3.17
2022-09-15T14:25:07.760Z,4.00
2022-09-15T14:27:36.924Z,3.72
2022-09-15T14:30:08.796Z,3.42
2022-09-15T14:32:40.273Z,2.60
2022-09-15T14:35:17.303Z,3.55
2022-09-15T14:37:56.937Z,3.35
2022-09-15T14:40:31.797Z,3.37
2022-09-15T14:42:59.843Z,2.85
2022-09-15T14:48:28.509Z,2.40
2022-09-15T14:51:17.263Z,3.10
2022-09-15T14:53:45.814Z,2.80
2022-09-15T14:56:23.303Z,2.90
2022-09-15T14:59:04.799Z,2.45
2022-09-15T15:01:38.034Z,3.00
2022-09-15T15:04:33.508Z,2.72
2022-09-15T15:07:26.007Z,2.62
2022-09-15T15:09:58.723Z,2.55
2022-09-15T15:12:32.574Z,2.47
2022-09-15T15:15:01.477Z,3.30
2022-09-15T15:17:38.769Z,2.83
2022-09-15T15:20:06.625Z,2.78
2022-09-15T15:22:35.650Z,2.72
2022-09-15T15:25:20.810Z,2.90
2022-09-15T15:27:54.433Z,2.30
2022-09-15T15:30:31.127Z,2.60
2022-09-15T15:33:02.227Z,3.22
2022-09-15T15:35:31.227Z,2.62
2022-09-15T15:38:14.523Z,2.65
2022-09-15T15:40:43.618Z,2.42
2022-09-15T15:43:22.829Z,2.97
2022-09-15T15:45:58.570Z,2.33
2022-09-15T15:48:28.529Z,3.03
2022-09-15T15:50:56.542Z,3.03
2022-09-15T15:53:24.976Z,2.92
2022-09-15T15:55:55.369Z,2.12
2022-09-15T15:58:23.487Z,2.10
2022-09-15T16:00:56.892Z,2.10
2022-09-15T16:03:25.892Z,2.62
2022-09-15T16:05:58.055Z,2.22
2022-09-15T16:08:40.174Z,2.47
2022-09-15T16:11:14.086Z,2.25
2022-09-15T16:13:42.754Z,1.98
2022-09-15T16:16:22.074Z,2.67
2022-09-15T16:18:53.454Z,2.80
2022-09-15T16:21:37.130Z,2.65
2022-09-15T16:24:06.502Z,2.00
2022-09-15T16:26:38.119Z,2.33
2022-09-15T16:29:06.656Z,2.30
2022-09-15T16:31:35.261Z,2.60
2022-09-15T16:34:03.220Z,2.65
2022-09-15T16:36:35.043Z,2.12
2022-09-15T16:39:03.155Z,2.83
2022-09-15T16:41:33.852Z,3.00
2022-09-15T16:44:04.720Z,3.17
2022-09-15T16:46:32.990Z,2.92
2022-09-15T16:49:00.822Z,2.60
2022-09-15T16:51:31.596Z,2.58
2022-09-15T16:53:59.945Z,2.67
2022-09-15T16:56:30.936Z,3.00
2022-09-15T16:59:00.561Z,4.55
2022-09-15T17:01:29.260Z,4.57
2022-09-15T17:03:57.161Z,4.82
2022-09-15T17:06:24.958Z,6.32
2022-09-15T17:08:53.159Z,5.68
2022-09-15T17:11:24.088Z,13.77
2022-09-15T17:13:52.127Z,11.35
2022-09-15T17:16:20.516Z,6.30
2022-09-15T17:18:48.736Z,6.65
2022-09-15T17:21:17.691Z,6.03
2022-09-15T17:23:50.280Z,5.57
2022-09-15T17:26:28.791Z,5.65
2022-09-15T17:28:59.554Z,5.80
2022-09-15T17:31:28.251Z,6.18
2022-09-15T17:33:56.127Z,6.97
2022-09-15T17:36:24.377Z,7.80
2022-09-15T17:38:52.267Z,6.32
2022-09-15T17:41:22.617Z,5.57
2022-09-15T17:43:51.218Z,3.72
2022-09-15T17:46:19.187Z,4.75
2022-09-15T17:48:46.999Z,5.60
2022-09-15T17:51:19.777Z,6.07
2022-09-15T17:53:48.102Z,5.93
2022-09-15T17:56:16.587Z,6.32
2022-09-15T17:58:44.385Z,5.95
2022-09-15T18:01:14.842Z,5.80
2022-09-15T18:03:45.149Z,5.30
2022-09-15T18:06:13.155Z,6.10
2022-09-15T18:08:41.435Z,4.82
2022-09-15T18:11:13.991Z,3.42
2022-09-15T18:13:44.352Z,5.37
2022-09-15T18:16:14.399Z,5.05
2022-09-15T18:18:42.311Z,5.72
2022-09-15T18:21:21.672Z,5.10
2022-09-15T18:23:49.991Z,5.30
2022-09-15T18:26:21.605Z,6.00
2022-09-15T18:28:54.814Z,5.80
2022-09-15T18:31:23.029Z,5.15
2022-09-15T18:33:50.856Z,5.75
2022-09-15T18:36:19.428Z,5.40
2022-09-15T18:38:47.271Z,6.10
2022-09-15T18:41:15.005Z,6.70
2022-09-15T18:43:44.096Z,6.00
2022-09-15T18:46:14.181Z,6.72
2022-09-15T18:48:42.144Z,6.57
2022-09-15T18:51:16.304Z,5.97
2022-09-15T18:53:52.060Z,5.97
2022-09-15T18:56:22.295Z,5.78
2022-09-15T18:58:54.081Z,6.32
2022-09-15T19:01:22.967Z,6.12
2022-09-15T19:03:50.952Z,3.78
2022-09-15T19:06:18.883Z,5.60
2022-09-15T19:08:49.501Z,6.20
2022-09-15T19:11:28.844Z,5.93
2022-09-15T19:13:58.049Z,5.70
2022-09-15T19:16:46.774Z,5.87
2022-09-15T19:19:17.247Z,5.35
2022-09-15T19:21:45.112Z,5.50
2022-09-15T19:24:13.087Z,4.18
2022-09-15T19:26:42.563Z,5.47
2022-09-15T19:29:10.425Z,5.53
2022-09-15T19:31:41.810Z,6.32
2022-09-15T19:34:10.761Z,5.47
2022-09-15T19:36:38.511Z,5.10
2022-09-15T19:39:06.351Z,5.57
2022-09-15T19:41:34.625Z,5.53
2022-09-15T19:44:02.749Z,5.43
2022-09-15T19:46:31.407Z,5.53
2022-09-15T19:48:59.553Z,5.28
2022-09-15T19:51:27.547Z,4.87
2022-09-15T19:53:56.283Z,5.72
2022-09-15T19:56:28.618Z,5.25
2022-09-15T19:58:58.761Z,5.57
2022-09-15T20:01:29.637Z,5.40
2022-09-15T20:03:58.040Z,3.20
2022-09-15T20:06:30.203Z,3.67
2022-09-15T20:09:00.578Z,4.90
2022-09-15T20:11:30.375Z,6.55
2022-09-15T20:13:58.878Z,6.28
2022-09-15T20:16:28.044Z,5.75
2022-09-15T20:18:56.273Z,6.20
2022-09-15T20:24:18.047Z,6.90
2022-09-15T20:26:45.812Z,7.07
2022-09-15T20:29:14.671Z,4.50
2022-09-15T20:31:43.044Z,6.22
2022-09-15T20:34:11.423Z,6.37
2022-09-15T20:36:40.392Z,5.07
2022-09-15T20:39:13.485Z,7.78
2022-09-15T20:41:45.282Z,7.18
2022-09-15T20:44:14.270Z,7.60
2022-09-15T20:46:42.719Z,5.40
2022-09-15T20:49:11.525Z,6.85
2022-09-15T20:51:39.851Z,7.55
2022-09-15T20:54:07.766Z,8.10
2022-09-15T20:56:36.310Z,6.65
2022-09-15T20:59:06.322Z,7.70
2022-09-15T21:01:38.678Z,7.20
2022-09-15T21:04:08.777Z,6.55
2022-09-15T21:06:37.225Z,6.53
2022-09-15T21:09:06.386Z,9.43
2022-09-15T21:11:34.799Z,7.57
2022-09-15T21:14:02.855Z,9.75
2022-09-15T21:16:31.034Z,6.30
2022-09-15T21:18:59.715Z,9.57
2022-09-15T21:21:30.540Z,7.25
2022-09-15T21:24:02.128Z,10.30
2022-09-15T21:26:35.804Z,8.32
2022-09-15T21:29:04.552Z,6.90
2022-09-15T21:31:33.559Z,8.10
2022-09-15T21:34:01.375Z,8.20
2022-09-15T21:36:31.040Z,8.23
2022-09-15T21:39:00.148Z,8.32
2022-09-15T21:41:32.519Z,9.20
2022-09-15T21:44:01.381Z,10.30
2022-09-15T21:46:31.043Z,10.68
2022-09-15T21:49:00.409Z,8.60
2022-09-15T21:51:30.687Z,9.80
2022-09-15T21:53:59.914Z,9.07
2022-09-15T21:56:30.033Z,9.27
2022-09-15T21:58:58.053Z,8.90
2022-09-15T22:01:29.465Z,7.05
2022-09-15T22:03:59.894Z,6.87
2022-09-15T22:06:34.093Z,7.30
2022-09-15T22:09:06.004Z,7.50
2022-09-15T22:11:34.583Z,7.32
2022-09-15T22:14:04.675Z,6.60
2022-09-15T22:16:34.526Z,7.65
2022-09-15T22:19:03.063Z,6.85
2022-09-15T22:21:37.207Z,7.43
2022-09-15T22:24:07.454Z,6.18
2022-09-15T22:26:38.365Z,6.68
2022-09-15T22:29:06.911Z,7.30
2022-09-15T22:31:35.259Z,6.87
2022-09-15T22:34:03.473Z,8.43
2022-09-15T22:36:32.294Z,7.90
2022-09-15T22:39:05.683Z,10.10
2022-09-15T22:41:36.406Z,9.40
2022-09-15T22:44:05.430Z,9.50
2022-09-15T22:46:33.327Z,9.57
2022-09-15T22:49:01.724Z,9.60
2022-09-15T22:51:38.768Z,9.48
2022-09-15T22:54:07.055Z,8.93
2022-09-15T22:56:34.946Z,8.38
2022-09-15T22:59:03.329Z,9.88
2022-09-15T23:01:31.535Z,8.70
2022-09-15T23:04:01.802Z,10.02
2022-09-15T23:06:32.581Z,9.32
2022-09-15T23:09:04.406Z,9.80
2022-09-15T23:11:33.579Z,9.18
2022-09-15T23:14:02.282Z,9.15
2022-09-15T23:16:31.501Z,9.30
2022-09-15T23:18:59.667Z,9.93
2022-09-15T23:21:28.615Z,10.15
2022-09-15T23:23:56.770Z,9.27
2022-09-15T23:26:25.635Z,9.73
2022-09-15T23:28:54.261Z,9.68
2022-09-15T23:31:22.538Z,10.15
2022-09-15T23:33:50.455Z,8.80
2022-09-15T23:36:19.834Z,10.32
2022-09-15T23:38:48.497Z,10.68
2022-09-15T23:41:17.731Z,10.32
2022-09-15T23:43:46.711Z,9.77
2022-09-15T23:46:15.140Z,11.18
2022-09-15T23:48:42.980Z,11.35
2022-09-15T23:51:11.336Z,11.80
2022-09-15T23:53:39.457Z,10.70
2022-09-15T23:56:07.963Z,10.18
2022-09-15T23:58:38.362Z,10.25
